Time;durP1;ratioP1;P1;durP2;ratioP2;P2;SDS_P1;SDS_P2;PMS_P1;PMS_P2;Temp;Humidity;BMP_temperature;BMP_pressure;BME280_temperature;BME280_humidity;BME280_pressure;Samples;Min_cycle;Max_cycle;Signal;HPM_P1;HPM_P2
2022/02/20 00:02:03;;;;;;;7.32;1.10;;;5.00;99.90;;;;;;4990627;23;20058;-82
2022/02/20 00:04:29;;;;;;;6.85;0.95;;;5.10;99.90;;;;;;4949674;28;20031;-81
2022/02/20 00:06:55;;;;;;;4.57;1.30;;;5.10;99.90;;;;;;4968263;28;20029;-79
2022/02/20 00:09:20;;;;;;;3.70;0.80;;;6.10;99.90;;;;;;4982919;28;20074;-79
2022/02/20 00:11:46;;;;;;;3.80;0.70;;;5.50;99.90;;;;;;4950672;28;20088;-79
2022/02/20 00:14:11;;;;;;;5.65;0.82;;;6.00;99.90;;;;;;4933979;28;20035;-79
2022/02/20 00:16:37;;;;;;;6.82;0.95;;;5.80;99.90;;;;;;4968290;28;20038;-79
2022/02/20 00:19:03;;;;;;;4.15;0.95;;;5.60;99.90;;;;;;4937426;28;21254;-79
2022/02/20 00:21:29;;;;;;;4.30;0.82;;;5.50;99.90;;;;;;4957985;28;20041;-78
2022/02/20 00:23:54;;;;;;;4.70;1.33;;;5.70;99.90;;;;;;4975289;28;20055;-78
2022/02/20 00:26:20;;;;;;;5.00;0.88;;;5.50;99.90;;;;;;4991977;28;20088;-79
2022/02/20 00:28:46;;;;;;;6.40;1.05;;;8.20;99.90;;;;;;4988883;28;20040;-78
2022/02/20 00:31:11;;;;;;;5.28;1.00;;;6.00;99.90;;;;;;4951441;28;20495;-79
2022/02/20 00:33:37;;;;;;;4.95;0.82;;;6.40;99.90;;;;;;4966999;28;20059;-79
2022/02/20 00:36:03;;;;;;;3.63;1.17;;;7.30;99.90;;;;;;4967750;28;20045;-79
2022/02/20 00:38:29;;;;;;;3.05;0.90;;;6.10;99.90;;;;;;4949889;28;20038;-79
2022/02/20 00:40:54;;;;;;;2.13;0.80;;;6.50;99.90;;;;;;4981784;28;20539;-78
2022/02/20 00:43:20;;;;;;;6.82;1.45;;;6.30;99.90;;;;;;4981538;28;20038;-78
2022/02/20 00:45:46;;;;;;;7.28;1.05;;;6.40;99.90;;;;;;4981960;28;20038;-78
2022/02/20 00:48:16;;;;;;;5.50;0.75;;;6.60;99.90;;;;;;4950395;28;20035;-78
2022/02/20 00:50:42;;;;;;;6.32;1.00;;;6.90;99.90;;;;;;4967054;28;20031;-78
2022/02/20 00:53:07;;;;;;;4.20;0.93;;;6.70;99.90;;;;;;4963690;28;20400;-79
2022/02/20 00:55:33;;;;;;;11.52;2.10;;;7.30;99.90;;;;;;5029368;28;20027;-78
2022/02/20 00:57:58;;;;;;;3.30;0.70;;;7.20;99.90;;;;;;4946884;29;20061;-78
2022/02/20 01:00:24;;;;;;;3.20;0.90;;;6.60;99.90;;;;;;4961972;28;20041;-78
2022/02/20 01:02:50;;;;;;;5.35;1.30;;;8.10;99.90;;;;;;4945602;28;20043;-78
2022/02/20 01:05:16;;;;;;;5.22;0.80;;;6.90;99.90;;;;;;4967086;28;20042;-78
2022/02/20 01:07:41;;;;;;;4.22;0.88;;;6.80;99.90;;;;;;4966296;28;20498;-78
2022/02/20 01:10:10;;;;;;;5.32;1.30;;;6.80;99.90;;;;;;4949146;28;20035;-79
2022/02/20 01:12:36;;;;;;;3.40;0.98;;;6.90;99.90;;;;;;4981619;28;20388;-78
2022/02/20 01:15:04;;;;;;;7.10;1.00;;;6.90;99.90;;;;;;4965855;28;20087;-79
2022/02/20 01:17:30;;;;;;;5.03;1.10;;;6.90;99.90;;;;;;4965489;28;20050;-79
2022/02/20 01:19:56;;;;;;;3.80;1.13;;;6.90;99.90;;;;;;4964801;28;20407;-79
2022/02/20 01:22:22;;;;;;;3.40;0.70;;;7.00;99.90;;;;;;4982131;28;20031;-79
2022/02/20 01:24:48;;;;;;;7.88;1.10;;;7.30;99.90;;;;;;4964633;28;20513;-79
2022/02/20 01:27:14;;;;;;;4.80;1.20;;;7.10;99.90;;;;;;4964887;28;20101;-79
2022/02/20 01:29:39;;;;;;;5.30;1.00;;;7.00;99.90;;;;;;4983347;28;20038;-78
2022/02/20 01:32:06;;;;;;;5.63;0.85;;;7.00;99.90;;;;;;4983832;28;20038;-79
2022/02/20 01:34:32;;;;;;;4.32;0.90;;;6.90;99.90;;;;;;4965544;28;20043;-78
2022/02/20 01:36:58;;;;;;;6.10;1.00;;;6.90;99.90;;;;;;4965147;28;20035;-79
2022/02/20 01:39:24;;;;;;;7.75;1.50;;;6.90;99.90;;;;;;4982699;28;20041;-78
2022/02/20 01:41:51;;;;;;;9.32;1.42;;;7.10;99.90;;;;;;4950591;28;20033;-79
2022/02/20 01:44:17;;;;;;;7.47;1.10;;;6.80;99.90;;;;;;4982295;28;20046;-79
2022/02/20 01:46:47;;;;;;;7.55;1.38;;;6.80;99.90;;;;;;4967017;28;20031;-79
2022/02/20 01:49:14;;;;;;;4.25;1.52;;;6.90;99.90;;;;;;4964015;28;20035;-78
2022/02/20 01:51:40;;;;;;;4.35;0.90;;;7.80;99.90;;;;;;4968092;28;20023;-78
2022/02/20 01:54:06;;;;;;;6.93;0.85;;;7.70;99.90;;;;;;4969867;28;20102;-79
2022/02/20 01:56:32;;;;;;;4.63;0.85;;;7.00;99.90;;;;;;4966067;28;20566;-79
2022/02/20 01:58:58;;;;;;;5.13;1.15;;;7.40;99.90;;;;;;4952049;28;20067;-78
2022/02/20 02:01:23;;;;;;;6.60;0.70;;;8.40;99.90;;;;;;4972863;28;20041;-77
2022/02/20 02:03:49;;;;;;;4.53;0.93;;;7.10;99.90;;;;;;4955811;28;20039;-78
2022/02/20 02:06:14;;;;;;;5.35;0.95;;;8.60;99.90;;;;;;4968812;28;20038;-78
2022/02/20 02:08:40;;;;;;;5.13;1.00;;;7.10;99.90;;;;;;4966978;28;20027;-78
2022/02/20 02:11:08;;;;;;;4.03;1.08;;;8.60;99.90;;;;;;4967182;28;20515;-78
2022/02/20 02:13:33;;;;;;;6.78;1.20;;;7.00;99.90;;;;;;4988372;28;20037;-77
2022/02/20 02:15:59;;;;;;;8.02;0.85;;;8.20;99.90;;;;;;4972452;28;20102;-78
2022/02/20 02:18:24;;;;;;;3.58;1.15;;;7.10;99.90;;;;;;4952576;28;20031;-78
2022/02/20 02:20:50;;;;;;;2.72;0.70;;;6.90;99.90;;;;;;4966837;28;20050;-79
2022/02/20 02:23:17;;;;;;;3.63;0.77;;;7.40;99.90;;;;;;4984323;28;20030;-79
2022/02/20 02:25:43;;;;;;;6.20;1.30;;;6.90;99.90;;;;;;4983762;28;20023;-78
2022/02/20 02:28:09;;;;;;;5.97;1.27;;;6.90;99.90;;;;;;4966736;28;20031;-79
2022/02/20 02:30:34;;;;;;;7.65;1.58;;;7.00;99.90;;;;;;4966510;28;20039;-78
2022/02/20 02:33:00;;;;;;;3.50;1.13;;;7.00;99.90;;;;;;4966390;28;20445;-79
2022/02/20 02:35:26;;;;;;;5.97;1.50;;;6.80;99.90;;;;;;4983963;28;20570;-78
2022/02/20 02:37:53;;;;;;;5.50;0.73;;;6.90;99.90;;;;;;4949856;28;20092;-78
2022/02/20 02:40:19;;;;;;;2.55;0.60;;;8.10;99.90;;;;;;4955882;29;20540;-79
2022/02/20 02:42:45;;;;;;;2.85;1.10;;;6.90;99.90;;;;;;4930865;28;20031;-78
2022/02/20 02:45:11;;;;;;;2.08;0.52;;;6.90;99.90;;;;;;4945369;29;20589;-79
2022/02/20 02:47:37;;;;;;;2.65;0.73;;;6.90;99.90;;;;;;4947141;28;20046;-79
2022/02/20 02:50:03;;;;;;;7.45;2.10;;;7.00;99.90;;;;;;4970174;28;20027;-79
2022/02/20 02:52:28;;;;;;;5.90;0.90;;;7.00;99.90;;;;;;4969737;28;20035;-78
2022/02/20 02:54:54;;;;;;;3.25;0.55;;;6.90;99.90;;;;;;4969942;28;20066;-78
2022/02/20 02:57:20;;;;;;;2.92;0.50;;;6.80;99.90;;;;;;4966748;28;20407;-79
2022/02/20 02:59:46;;;;;;;6.45;0.73;;;6.60;99.90;;;;;;4964754;28;20096;-78
2022/02/20 03:02:11;;;;;;;3.30;0.68;;;8.20;99.90;;;;;;4965783;28;20068;-79
2022/02/20 03:04:37;;;;;;;7.47;1.00;;;6.70;99.90;;;;;;4965651;28;20048;-79
2022/02/20 03:07:03;;;;;;;5.88;1.15;;;6.50;99.90;;;;;;4965319;28;20031;-78
2022/02/20 03:09:28;;;;;;;2.95;0.52;;;6.70;99.90;;;;;;4965507;28;20027;-78
2022/02/20 03:11:54;;;;;;;3.53;0.75;;;6.70;99.90;;;;;;4949180;28;20053;-79
2022/02/20 03:14:20;;;;;;;4.10;0.77;;;7.00;99.90;;;;;;4967912;28;20031;-78
2022/02/20 03:16:46;;;;;;;3.63;0.55;;;6.70;99.90;;;;;;4954059;28;20042;-79
2022/02/20 03:19:11;;;;;;;3.25;0.70;;;6.40;99.90;;;;;;4968738;28;20506;-79
2022/02/20 03:21:38;;;;;;;3.10;1.55;;;6.80;99.90;;;;;;4968056;28;20038;-78
2022/02/20 03:24:04;;;;;;;5.18;1.02;;;6.40;99.90;;;;;;4984701;28;20110;-78
2022/02/20 03:26:30;;;;;;;4.00;0.65;;;6.40;99.90;;;;;;4965712;28;20019;-78
2022/02/20 03:28:55;;;;;;;4.40;1.20;;;6.50;99.90;;;;;;4982380;28;20041;-79
2022/02/20 03:31:21;;;;;;;7.50;1.00;;;6.50;99.90;;;;;;4965262;28;20046;-78
2022/02/20 03:33:47;;;;;;;5.45;0.70;;;6.40;99.90;;;;;;4964888;28;20027;-79
2022/02/20 03:36:12;;;;;;;4.18;0.88;;;6.50;99.90;;;;;;4981492;28;20082;-79
2022/02/20 03:38:39;;;;;;;8.18;0.90;;;6.30;99.90;;;;;;4980282;28;20035;-78
2022/02/20 03:41:05;;;;;;;3.17;0.60;;;6.30;99.90;;;;;;4964071;28;20138;-79
2022/02/20 03:43:30;;;;;;;2.85;1.48;;;6.70;99.90;;;;;;4964565;28;20031;-79
2022/02/20 03:45:56;;;;;;;4.43;1.05;;;6.30;99.90;;;;;;4983037;28;20030;-79
2022/02/20 03:48:22;;;;;;;4.95;1.00;;;6.90;99.90;;;;;;4964649;28;20038;-77
2022/02/20 03:50:48;;;;;;;3.33;0.63;;;6.30;99.90;;;;;;4965101;28;20027;-78
2022/02/20 03:53:14;;;;;;;4.25;0.82;;;6.30;99.90;;;;;;4965788;28;20077;-78
2022/02/20 03:55:40;;;;;;;5.22;0.82;;;6.80;99.90;;;;;;4942769;28;20491;-79
2022/02/20 03:58:05;;;;;;;4.68;0.80;;;6.40;99.90;;;;;;4948789;28;20123;-79
2022/02/20 04:00:31;;;;;;;2.95;0.80;;;7.30;99.90;;;;;;4947950;28;20438;-78
2022/02/20 04:02:56;;;;;;;4.40;0.73;;;6.20;99.90;;;;;;4965059;28;20035;-79
2022/02/20 04:05:22;;;;;;;3.58;0.73;;;6.50;99.90;;;;;;4965532;28;20035;-78
2022/02/20 04:07:48;;;;;;;2.97;0.70;;;6.40;99.90;;;;;;4966399;28;20023;-78
2022/02/20 04:10:15;;;;;;;3.13;0.70;;;6.40;99.90;;;;;;4981545;28;20031;-78
2022/02/20 04:12:42;;;;;;;5.03;0.60;;;6.30;99.90;;;;;;4982101;28;20023;-78
2022/02/20 04:15:08;;;;;;;4.18;0.65;;;6.60;99.90;;;;;;4964027;28;20088;-78
2022/02/20 04:17:45;;;;;;;6.15;1.00;;;6.50;99.90;;;;;;4963891;28;20034;-78
2022/02/20 04:20:15;;;;;;;4.93;0.70;;;7.40;99.90;;;;;;4962715;28;20050;-78
2022/02/20 04:22:41;;;;;;;1.50;0.25;;;6.50;99.90;;;;;;4964939;28;20065;-78
2022/02/20 04:25:07;;;;;;;1.52;0.35;;;6.60;99.90;;;;;;4964652;28;20429;-78
2022/02/20 04:27:33;;;;;;;6.82;0.50;;;6.60;99.90;;;;;;4980946;28;20038;-78
2022/02/20 04:29:59;;;;;;;2.72;0.60;;;6.70;99.90;;;;;;4982523;28;20027;-79
2022/02/20 04:32:24;;;;;;;0.73;0.38;;;6.50;99.90;;;;;;4982812;28;20042;-77
2022/02/20 04:34:50;;;;;;;1.65;0.60;;;6.80;99.90;;;;;;4984914;28;20263;-78
2022/02/20 04:37:16;;;;;;;2.50;0.43;;;6.60;99.90;;;;;;4987544;28;20077;-77
2022/02/20 04:39:41;;;;;;;1.23;0.40;;;6.60;99.90;;;;;;4972774;28;20047;-78
2022/02/20 04:42:07;;;;;;;5.40;0.80;;;6.80;99.90;;;;;;4946695;28;20483;-78
2022/02/20 04:44:33;;;;;;;4.53;0.55;;;6.60;99.90;;;;;;4950917;28;20543;-79
2022/02/20 04:46:58;;;;;;;3.25;0.77;;;6.70;99.90;;;;;;4977805;28;20035;-79
2022/02/20 04:49:24;;;;;;;3.72;0.50;;;6.60;99.90;;;;;;4962189;28;20031;-78
2022/02/20 04:51:50;;;;;;;1.80;0.63;;;8.00;99.90;;;;;;4966013;28;20042;-79
2022/02/20 04:54:16;;;;;;;2.33;0.60;;;6.70;99.90;;;;;;4966917;28;20031;-78
2022/02/20 04:56:42;;;;;;;4.65;2.35;;;6.70;99.90;;;;;;4971249;28;20061;-77
2022/02/20 04:59:13;;;;;;;3.45;0.60;;;7.70;99.90;;;;;;4987490;28;20026;-77
2022/02/20 05:01:39;;;;;;;4.35;0.77;;;7.00;99.90;;;;;;4969744;28;20042;-78
2022/02/20 05:04:06;;;;;;;1.67;0.32;;;6.70;99.90;;;;;;4967918;28;20037;-78
2022/02/20 05:06:32;;;;;;;0.85;0.30;;;6.80;99.90;;;;;;4950338;28;20134;-78
2022/02/20 05:08:58;;;;;;;3.05;0.55;;;7.30;99.90;;;;;;4943944;29;20019;-78
2022/02/20 05:11:24;;;;;;;2.50;0.32;;;6.70;99.90;;;;;;4960459;28;20514;-78
2022/02/20 05:14:00;;;;;;;1.48;0.43;;;6.80;99.90;;;;;;4963976;28;20023;-79
2022/02/20 05:16:29;;;;;;;2.30;0.63;;;6.90;99.90;;;;;;4949604;28;20035;-78
2022/02/20 05:18:55;;;;;;;2.20;0.50;;;6.70;99.90;;;;;;4948983;28;20031;-79
2022/02/20 05:21:21;;;;;;;1.85;0.30;;;6.70;99.90;;;;;;4964468;28;20027;-79
2022/02/20 05:23:47;;;;;;;3.75;0.52;;;6.70;99.90;;;;;;4963477;28;20161;-78
2022/02/20 05:26:13;;;;;;;2.80;0.20;;;6.70;99.90;;;;;;4982802;28;20087;-78
2022/02/20 05:28:39;;;;;;;2.50;0.55;;;6.80;99.90;;;;;;4965287;28;20027;-78
2022/02/20 05:31:05;;;;;;;1.88;0.52;;;8.50;99.90;;;;;;4953458;28;20034;-77
2022/02/20 05:33:30;;;;;;;2.15;0.50;;;8.30;99.90;;;;;;4984340;28;20547;-77
2022/02/20 05:35:56;;;;;;;1.55;0.60;;;6.90;99.90;;;;;;4965890;28;20026;-79
2022/02/20 05:38:22;;;;;;;2.05;0.30;;;6.90;99.90;;;;;;4968314;28;20100;-77
2022/02/20 05:40:47;;;;;;;3.30;1.20;;;6.90;99.90;;;;;;4969013;28;20042;-78
2022/02/20 05:43:13;;;;;;;2.22;0.63;;;7.10;99.90;;;;;;4969833;28;20023;-78
2022/02/20 05:45:39;;;;;;;2.70;0.30;;;7.40;99.90;;;;;;4968575;28;20034;-79
2022/02/20 05:48:05;;;;;;;1.77;0.22;;;7.20;99.90;;;;;;4953657;28;20031;-79
2022/02/20 05:50:31;;;;;;;3.45;0.60;;;6.90;99.90;;;;;;4968581;28;20027;-79
2022/02/20 05:52:57;;;;;;;1.27;0.45;;;6.90;99.90;;;;;;4954170;28;20026;-78
2022/02/20 05:55:23;;;;;;;2.63;0.63;;;7.50;99.90;;;;;;4992409;28;20499;-77
2022/02/20 05:57:51;;;;;;;2.17;0.50;;;6.70;99.90;;;;;;4974048;28;20061;-77
2022/02/20 06:00:20;;;;;;;1.27;0.40;;;7.20;99.90;;;;;;4977219;28;20407;-79
2022/02/20 06:02:46;;;;;;;1.73;0.38;;;7.40;99.90;;;;;;4973300;28;20093;-78
2022/02/20 06:05:11;;;;;;;0.80;0.50;;;7.60;99.90;;;;;;4972895;28;20031;-78
2022/02/20 06:07:40;;;;;;;1.88;0.43;;;7.90;99.90;;;;;;4969420;28;20588;-77
2022/02/20 06:10:08;;;;;;;1.00;0.40;;;6.70;99.90;;;;;;4985013;28;20479;-78
2022/02/20 06:12:34;;;;;;;1.20;0.38;;;6.90;99.90;;;;;;4957266;28;20031;-78
2022/02/20 06:15:00;;;;;;;1.90;0.40;;;6.80;99.90;;;;;;4958080;28;20027;-77
2022/02/20 06:17:26;;;;;;;0.70;0.30;;;6.80;99.90;;;;;;4970017;28;20038;-78
2022/02/20 06:19:52;;;;;;;0.40;0.30;;;7.00;99.90;;;;;;4932118;28;20039;-78
2022/02/20 06:22:17;;;;;;;1.27;0.63;;;7.60;99.90;;;;;;4981777;28;20379;-78
2022/02/20 06:24:43;;;;;;;0.93;0.30;;;6.70;99.90;;;;;;4965097;28;20061;-78
2022/02/20 06:27:09;;;;;;;1.48;0.30;;;6.80;99.90;;;;;;4959799;28;20027;-78
2022/02/20 06:29:35;;;;;;;1.30;0.30;;;6.90;99.90;;;;;;4953264;28;20042;-78
2022/02/20 06:32:00;;;;;;;1.67;0.28;;;6.90;99.90;;;;;;4961312;28;20023;-77
2022/02/20 06:34:26;;;;;;;0.40;0.20;;;6.90;99.90;;;;;;4964957;28;20102;-79
2022/02/20 06:36:53;;;;;;;1.88;0.50;;;7.10;99.90;;;;;;4964823;28;20589;-79
2022/02/20 06:39:19;;;;;;;3.45;0.60;;;6.90;99.90;;;;;;4963546;28;20045;-78
2022/02/20 06:41:45;;;;;;;2.58;0.40;;;7.00;99.90;;;;;;4949674;28;20110;-78
2022/02/20 06:44:10;;;;;;;1.80;0.40;;;7.10;99.90;;;;;;4966162;28;20030;-78
2022/02/20 06:46:37;;;;;;;1.05;0.32;;;6.70;99.90;;;;;;4965134;28;20057;-78
2022/02/20 06:49:07;;;;;;;1.98;0.25;;;6.80;99.90;;;;;;4948868;28;20030;-79
2022/02/20 06:51:33;;;;;;;1.00;0.20;;;6.80;99.90;;;;;;4966812;28;20113;-78
2022/02/20 06:53:58;;;;;;;1.95;0.30;;;7.10;99.90;;;;;;4964922;28;20449;-78
2022/02/20 06:56:24;;;;;;;0.20;0.10;;;6.90;99.90;;;;;;4966378;28;20030;-78
2022/02/20 06:58:50;;;;;;;1.40;0.20;;;7.20;99.90;;;;;;4959654;28;20031;-79
2022/02/20 07:01:15;;;;;;;0.98;0.22;;;6.90;99.90;;;;;;4944875;28;20039;-80
2022/02/20 07:03:41;;;;;;;2.10;0.30;;;8.20;99.90;;;;;;4973345;28;20055;-80
2022/02/20 07:06:08;;;;;;;1.17;0.20;;;8.10;99.90;;;;;;4939081;28;20038;-79
2022/02/20 07:08:34;;;;;;;1.95;0.30;;;6.90;99.90;;;;;;4928817;28;20031;-81
2022/02/20 07:10:59;;;;;;;1.80;0.30;;;7.30;99.90;;;;;;4958878;28;20042;-79
2022/02/20 07:13:25;;;;;;;1.92;0.25;;;7.50;99.90;;;;;;4965980;28;20027;-79
2022/02/20 07:15:51;;;;;;;1.38;0.22;;;7.10;99.90;;;;;;4962576;28;20045;-80
2022/02/20 07:18:16;;;;;;;1.27;0.20;;;7.40;99.90;;;;;;4976029;28;20027;-79
2022/02/20 07:20:42;;;;;;;1.08;0.17;;;7.20;99.90;;;;;;4972169;28;20030;-79
2022/02/20 07:23:09;;;;;;;0.65;0.20;;;8.10;99.90;;;;;;4962196;28;20062;-79
2022/02/20 07:25:35;;;;;;;1.13;0.40;;;7.30;99.90;;;;;;4953124;28;20054;-78
2022/02/20 07:28:01;;;;;;;2.58;0.40;;;7.30;99.90;;;;;;4958891;28;20483;-80
2022/02/20 07:30:28;;;;;;;2.42;0.55;;;7.40;99.90;;;;;;4965434;28;20091;-78
2022/02/20 07:33:04;;;;;;;3.13;0.30;;;7.60;99.90;;;;;;4941605;28;20031;-79
2022/02/20 07:35:34;;;;;;;0.68;0.20;;;7.50;99.90;;;;;;4959793;28;20041;-79
2022/02/20 07:38:00;;;;;;;0.15;0.03;;;7.50;99.90;;;;;;4961559;28;20026;-77
2022/02/20 07:40:27;;;;;;;1.42;0.22;;;8.10;99.90;;;;;;4955512;28;20039;-79
2022/02/20 07:42:54;;;;;;;4.10;0.55;;;8.50;99.90;;;;;;4961402;29;20055;-79
2022/02/20 07:45:23;;;;;;;1.60;0.30;;;9.30;99.90;;;;;;4959597;29;20511;-79
2022/02/20 07:47:59;;;;;;;1.08;0.30;;;7.80;99.90;;;;;;4962939;28;20034;-78
2022/02/20 07:50:27;;;;;;;1.70;0.30;;;7.90;99.90;;;;;;4954149;28;20084;-78
2022/02/20 07:52:53;;;;;;;1.08;0.38;;;8.00;99.90;;;;;;4946599;28;20105;-78
2022/02/20 07:55:20;;;;;;;1.75;0.50;;;7.70;99.90;;;;;;4980188;28;20019;-82
2022/02/20 07:57:46;;;;;;;2.72;0.32;;;7.80;99.90;;;;;;4982406;28;20491;-79
2022/02/20 08:00:13;;;;;;;1.67;0.68;;;8.90;99.90;;;;;;4981155;28;20188;-80
2022/02/20 08:02:41;;;;;;;2.35;0.45;;;7.90;99.90;;;;;;4966434;28;20035;-79
2022/02/20 08:05:07;;;;;;;1.52;0.20;;;7.90;99.90;;;;;;4964536;28;20348;-79
2022/02/20 08:07:33;;;;;;;4.18;0.40;;;7.90;99.90;;;;;;4945311;28;20027;-79
2022/02/20 08:09:58;;;;;;;2.53;0.50;;;7.90;99.90;;;;;;4942902;28;20045;-79
2022/02/20 08:12:24;;;;;;;2.72;0.40;;;8.00;99.90;;;;;;4991949;28;20037;-80
2022/02/20 08:14:50;;;;;;;1.75;0.40;;;8.30;99.90;;;;;;5025262;28;20036;-79
2022/02/20 08:17:15;;;;;;;1.20;0.32;;;8.20;99.90;;;;;;4941965;28;20028;-78
2022/02/20 08:19:41;;;;;;;3.13;0.40;;;8.40;99.90;;;;;;4937200;28;20168;-79
2022/02/20 08:22:07;;;;;;;1.92;0.50;;;8.30;99.90;;;;;;4938730;28;20506;-78
2022/02/20 08:24:32;;;;;;;1.38;0.25;;;8.20;99.90;;;;;;5027702;28;20027;-79
2022/02/20 08:26:58;;;;;;;0.68;0.15;;;8.80;99.90;;;;;;4966581;28;20357;-78
2022/02/20 08:29:23;;;;;;;1.27;0.10;;;8.70;99.90;;;;;;4969749;28;20537;-79
2022/02/20 08:31:49;;;;;;;0.82;0.30;;;8.60;99.90;;;;;;4982972;28;20094;-77
2022/02/20 08:34:15;;;;;;;1.08;0.30;;;8.40;99.90;;;;;;4943795;28;20051;-79
2022/02/20 08:36:41;;;;;;;1.98;0.45;;;9.10;99.90;;;;;;4966239;28;20027;-79
2022/02/20 08:39:07;;;;;;;1.60;0.50;;;8.50;99.90;;;;;;4949968;28;20056;-79
2022/02/20 08:41:35;;;;;;;2.85;0.30;;;8.60;99.90;;;;;;4960156;28;20034;-80
2022/02/20 08:44:00;;;;;;;0.77;0.30;;;8.80;99.90;;;;;;4928556;28;20081;-78
2022/02/20 08:46:26;;;;;;;2.05;0.50;;;9.10;99.90;;;;;;4966705;28;20461;-78
2022/02/20 08:48:52;;;;;;;1.00;0.20;;;8.50;99.90;;;;;;4972742;28;20110;-78
2022/02/20 08:51:17;;;;;;;3.05;0.30;;;8.50;99.90;;;;;;4975783;28;20050;-78
2022/02/20 08:53:44;;;;;;;0.40;0.20;;;8.70;99.90;;;;;;4978127;28;20062;-79
2022/02/20 08:56:10;;;;;;;0.20;0.20;;;8.50;99.90;;;;;;4961063;28;20503;-78
2022/02/20 08:58:35;;;;;;;1.25;0.20;;;8.80;99.90;;;;;;4958227;28;20060;-79
2022/02/20 09:01:02;;;;;;;0.60;0.20;;;8.60;99.90;;;;;;4957868;28;20122;-79
2022/02/20 09:03:28;;;;;;;0.77;0.20;;;8.90;99.90;;;;;;4958270;28;20035;-78
2022/02/20 09:05:56;;;;;;;0.68;0.20;;;8.60;99.90;;;;;;4975586;28;20092;-79
2022/02/20 09:08:22;;;;;;;0.70;0.10;;;;;;;;;;4962012;28;20030;-79
2022/02/20 09:10:48;;;;;;;0.70;0.25;;;8.50;99.90;;;;;;4973079;28;20031;-78
2022/02/20 09:13:14;;;;;;;2.28;0.20;;;8.50;99.90;;;;;;4957277;29;20023;-79
2022/02/20 09:15:41;;;;;;;0.28;0.03;;;8.90;99.90;;;;;;4956514;28;20116;-79
2022/02/20 09:18:06;;;;;;;1.25;0.10;;;8.80;99.90;;;;;;4957777;28;20039;-82
2022/02/20 09:20:32;;;;;;;1.35;0.30;;;8.80;99.90;;;;;;4979653;28;20043;-79
2022/02/20 09:22:58;;;;;;;2.03;0.38;;;8.80;99.90;;;;;;4983168;28;20046;-79
2022/02/20 09:25:24;;;;;;;1.23;0.20;;;8.60;99.90;;;;;;4980691;28;20023;-77
2022/02/20 09:27:49;;;;;;;1.25;0.30;;;8.80;99.90;;;;;;4978046;28;20031;-78
2022/02/20 09:30:15;;;;;;;0.75;0.20;;;8.80;99.90;;;;;;4977706;28;20038;-78
2022/02/20 09:32:41;;;;;;;0.75;0.25;;;8.60;99.90;;;;;;4979255;28;20487;-78
2022/02/20 09:35:08;;;;;;;0.50;0.20;;;8.60;99.90;;;;;;4973215;28;20037;-79
2022/02/20 09:37:33;;;;;;;1.48;0.30;;;8.50;99.90;;;;;;4972656;28;20118;-79
2022/02/20 09:39:59;;;;;;;0.10;0.10;;;8.70;99.90;;;;;;4973671;28;20050;-78
2022/02/20 09:42:26;;;;;;;1.25;0.50;;;8.70;99.90;;;;;;4973121;28;20035;-78
2022/02/20 09:44:52;;;;;;;1.17;0.28;;;9.00;99.90;;;;;;4974409;28;20143;-78
2022/02/20 09:47:22;;;;;;;0.10;0.10;;;8.50;99.90;;;;;;4978090;28;20038;-78
2022/02/20 09:49:49;;;;;;;0.35;0.20;;;8.70;99.90;;;;;;4976993;28;20023;-79
2022/02/20 09:52:15;;;;;;;0.20;0.20;;;8.60;99.90;;;;;;4973677;28;20100;-78
2022/02/20 09:54:40;;;;;;;3.45;0.30;;;8.80;99.90;;;;;;4981438;28;20039;-78
2022/02/20 09:57:06;;;;;;;1.33;0.28;;;8.80;99.90;;;;;;4962609;28;20033;-78
2022/02/20 09:59:31;;;;;;;0.43;0.10;;;9.00;99.90;;;;;;4976608;28;20058;-79
2022/02/20 10:02:00;;;;;;;2.42;0.30;;;8.60;99.90;;;;;;4973338;28;20039;-78
2022/02/20 10:04:36;;;;;;;1.75;0.25;;;8.90;99.90;;;;;;4989572;28;20034;-79
2022/02/20 10:07:01;;;;;;;0.55;0.13;;;8.80;99.90;;;;;;4977327;28;20019;-79
2022/02/20 10:09:27;;;;;;;0.90;0.10;;;9.00;99.90;;;;;;4968291;28;20072;-77
2022/02/20 10:11:55;;;;;;;1.17;0.10;;;8.90;99.90;;;;;;4972171;28;20019;-78
2022/02/20 10:14:21;;;;;;;1.10;0.20;;;;;;;;;;4969208;28;20031;-77
2022/02/20 10:16:47;;;;;;;0.73;0.17;;;9.00;99.90;;;;;;4971095;28;20266;-78
2022/02/20 10:19:13;;;;;;;1.63;0.32;;;9.10;99.90;;;;;;4958256;28;20031;-78
2022/02/20 10:21:39;;;;;;;1.45;0.20;;;9.40;99.90;;;;;;4955393;28;20070;-78
2022/02/20 10:24:09;;;;;;;1.25;0.30;;;9.10;99.90;;;;;;4976342;28;20029;-78
2022/02/20 10:26:46;;;;;;;1.35;0.30;;;9.30;99.90;;;;;;4974583;28;20031;-78
2022/02/20 10:29:21;;;;;;;0.63;0.30;;;9.30;99.90;;;;;;4967756;28;20047;-77
2022/02/20 10:31:47;;;;;;;1.10;0.30;;;9.40;99.90;;;;;;4966630;28;20038;-78
2022/02/20 10:34:20;;;;;;;0.95;0.10;;;9.40;99.90;;;;;;4967914;28;20035;-78
2022/02/20 10:36:45;;;;;;;0.25;0.10;;;9.40;99.90;;;;;;4969967;28;20077;-78
2022/02/20 10:39:17;;;;;;;0.43;0.20;;;9.50;99.90;;;;;;4969727;28;20023;-78
2022/02/20 10:41:43;;;;;;;0.68;0.22;;;9.80;99.90;;;;;;4969202;28;20096;-78
2022/02/20 10:44:08;;;;;;;0.85;0.20;;;9.50;99.90;;;;;;4969593;28;21583;-78
2022/02/20 10:46:34;;;;;;;1.15;0.30;;;9.60;99.90;;;;;;4954011;28;20035;-78
2022/02/20 10:49:01;;;;;;;1.95;0.20;;;9.70;99.90;;;;;;4953269;28;20096;-78
2022/02/20 10:51:40;;;;;;;0.43;0.20;;;9.70;99.90;;;;;;4970105;28;20023;-78
2022/02/20 10:54:06;;;;;;;2.40;0.20;;;9.50;99.90;;;;;;4970810;28;20038;-78
2022/02/20 10:56:45;;;;;;;1.17;0.25;;;9.50;99.90;;;;;;4953418;28;20122;-78
2022/02/20 10:59:11;;;;;;;1.17;0.38;;;9.40;99.90;;;;;;4970534;28;20026;-79
2022/02/20 11:01:37;;;;;;;0.50;0.22;;;9.70;99.90;;;;;;4953794;28;20035;-78
2022/02/20 11:04:10;;;;;;;0.98;0.30;;;9.70;99.90;;;;;;4974551;28;20030;-78
2022/02/20 11:06:38;;;;;;;2.28;0.57;;;9.60;99.90;;;;;;4959724;28;20430;-79
2022/02/20 11:09:04;;;;;;;1.83;0.22;;;9.60;99.90;;;;;;4977146;28;20015;-79
2022/02/20 11:11:36;;;;;;;1.50;0.30;;;9.70;99.90;;;;;;4961510;28;20047;-79
2022/02/20 11:14:03;;;;;;;0.70;0.22;;;;;;;;;;4978014;28;20054;-79
2022/02/20 11:16:31;;;;;;;1.58;0.30;;;9.60;99.90;;;;;;4975353;28;20027;-78
2022/02/20 11:18:59;;;;;;;2.28;0.30;;;10.10;99.90;;;;;;4975051;28;20031;-78
2022/02/20 11:21:26;;;;;;;1.48;0.47;;;9.60;99.90;;;;;;4982801;28;20031;-78
2022/02/20 11:23:56;;;;;;;0.80;0.30;;;9.90;99.90;;;;;;4984285;28;20558;-78
2022/02/20 11:26:23;;;;;;;0.52;0.20;;;9.50;99.90;;;;;;4959909;28;20031;-78
2022/02/20 11:28:49;;;;;;;4.03;0.65;;;9.60;99.90;;;;;;4956033;28;20076;-78
2022/02/20 11:31:19;;;;;;;0.32;0.25;;;9.60;99.90;;;;;;4959589;28;20031;-78
2022/02/20 11:33:51;;;;;;;0.77;0.30;;;9.90;99.90;;;;;;4983018;28;20026;-78
2022/02/20 11:36:19;;;;;;;3.35;0.20;;;9.60;99.90;;;;;;4988460;28;20026;-78
2022/02/20 11:39:13;;;;;;;1.38;1.27;;;9.70;99.90;;;;;;4970446;28;20022;-78
2022/02/20 11:41:41;;;;;;;0.75;0.30;;;9.50;99.90;;;;;;4962217;28;20035;-78
2022/02/20 11:44:12;;;;;;;1.65;0.40;;;9.80;99.90;;;;;;4961553;28;20042;-78
2022/02/20 11:46:50;;;;;;;1.13;0.30;;;9.40;99.90;;;;;;4980720;28;20027;-78
2022/02/20 11:49:19;;;;;;;1.58;0.20;;;9.80;99.90;;;;;;4963705;28;20038;-78
2022/02/20 11:52:14;;;;;;;2.28;0.40;;;9.70;99.90;;;;;;4976836;28;20042;-78
2022/02/20 11:54:41;;;;;;;1.40;0.40;;;9.50;99.90;;;;;;4949328;28;20422;-78
2022/02/20 11:57:13;;;;;;;1.23;0.30;;;9.80;99.90;;;;;;4983654;28;20042;-79
2022/02/20 12:00:03;;;;;;;0.70;0.13;;;10.00;99.90;;;;;;4979039;28;20078;-79
2022/02/20 12:02:32;;;;;;;1.35;0.40;;;9.60;99.90;;;;;;4956523;29;20031;-79
2022/02/20 12:04:58;;;;;;;0.13;0.10;;;9.60;99.90;;;;;;4967650;28;20055;-79
2022/02/20 12:07:41;;;;;;;1.17;0.57;;;9.70;99.90;;;;;;4975914;28;20064;-78
2022/02/20 12:10:25;;;;;;;0.85;0.30;;;10.40;99.90;;;;;;4981692;28;20029;-78
2022/02/20 12:13:06;;;;;;;2.63;0.40;;;10.40;99.90;;;;;;4965515;28;20023;-79
2022/02/20 12:15:40;;;;;;;0.47;0.20;;;9.70;99.90;;;;;;4980518;28;20575;-79
2022/02/20 12:18:12;;;;;;;0.88;0.20;;;9.80;99.90;;;;;;4980117;28;20333;-78
2022/02/20 12:20:49;;;;;;;0.88;0.20;;;9.80;99.90;;;;;;4979600;28;20102;-78
2022/02/20 12:23:48;;;;;;;1.50;0.28;;;9.90;99.90;;;;;;4977131;28;20030;-78
2022/02/20 12:26:55;;;;;;;1.65;0.40;;;9.90;99.90;;;;;;4947284;28;20038;-79
2022/02/20 12:29:33;;;;;;;1.10;0.38;;;9.90;99.90;;;;;;4963746;28;20510;-78
2022/02/20 12:32:06;;;;;;;2.28;0.52;;;10.70;99.90;;;;;;4978657;28;20035;-78
2022/02/20 12:34:59;;;;;;;1.42;0.40;;;10.00;99.90;;;;;;4976864;28;20042;-79
2022/02/20 12:37:29;;;;;;;1.13;0.30;;;10.10;99.90;;;;;;4966217;28;20023;-78
2022/02/20 12:40:00;;;;;;;1.35;0.40;;;10.10;99.90;;;;;;4986605;28;20102;-78
2022/02/20 12:42:28;;;;;;;0.57;0.20;;;11.50;99.90;;;;;;4973490;28;20015;-78
2022/02/20 12:45:07;;;;;;;2.30;0.50;;;10.50;99.90;;;;;;4979132;28;20026;-77
2022/02/20 12:47:35;;;;;;;2.20;0.50;;;10.20;99.90;;;;;;4988626;28;20017;-78
2022/02/20 12:50:01;;;;;;;3.75;0.47;;;10.20;99.90;;;;;;5039423;28;20122;-79
2022/02/20 12:52:35;;;;;;;1.48;0.75;;;10.10;99.90;;;;;;4926910;28;20487;-78
2022/02/20 12:55:02;;;;;;;0.47;0.20;;;10.30;99.90;;;;;;4959658;28;20491;-78
2022/02/20 12:57:28;;;;;;;1.23;0.40;;;10.40;99.90;;;;;;4963145;28;20023;-78
2022/02/20 12:59:58;;;;;;;2.42;0.30;;;10.10;99.90;;;;;;4963606;28;20374;-78